createdAt,value
2022-07-29T03:46:53.062Z,1.70
2022-07-29T03:50:06.220Z,1.92
2022-07-29T03:53:14.533Z,1.92
2022-07-29T03:56:21.889Z,1.70
2022-07-29T03:59:24.843Z,1.60
2022-07-29T04:02:30.745Z,1.70
2022-07-29T04:05:34.565Z,1.90
2022-07-29T04:08:37.133Z,1.73
2022-07-29T04:15:06.950Z,1.80
2022-07-29T04:18:10.023Z,1.60
2022-07-29T04:21:12.656Z,1.80
2022-07-29T04:24:16.335Z,1.90
2022-07-29T04:27:19.148Z,2.00
2022-07-29T04:30:24.031Z,1.45
2022-07-29T04:33:27.112Z,1.67
2022-07-29T04:36:30.273Z,1.80
2022-07-29T04:42:35.481Z,1.85
2022-07-29T04:45:49.015Z,1.70
2022-07-29T04:48:52.203Z,1.70
2022-07-29T04:51:54.958Z,1.80
2022-07-29T04:54:57.842Z,1.95
2022-07-29T04:58:00.446Z,1.67
2022-07-29T05:01:04.836Z,1.75
2022-07-29T05:04:07.721Z,2.03
2022-07-29T05:10:13.106Z,1.80
2022-07-29T05:16:19.649Z,1.80
2022-07-29T05:19:22.624Z,1.80
2022-07-29T05:22:25.183Z,2.20
2022-07-29T05:25:43.470Z,1.80
2022-07-29T05:28:47.141Z,1.83
2022-07-29T05:31:49.985Z,1.60
2022-07-29T05:37:55.266Z,1.92
2022-07-29T05:41:00.175Z,1.95
2022-07-29T05:44:03.269Z,1.92
2022-07-29T05:47:06.136Z,2.00
2022-07-29T05:50:09.753Z,1.80
2022-07-29T05:53:19.597Z,1.80
2022-07-29T05:56:23.600Z,2.00
2022-07-29T06:02:33.250Z,1.90
2022-07-29T06:05:36.285Z,1.60
2022-07-29T06:11:42.587Z,2.03
2022-07-29T06:14:45.125Z,2.35
2022-07-29T06:18:00.207Z,2.03
2022-07-29T06:21:09.610Z,2.30
2022-07-29T06:24:14.044Z,2.17
2022-07-29T06:27:17.340Z,2.00
2022-07-29T06:30:20.315Z,2.05
2022-07-29T06:36:25.974Z,2.17
2022-07-29T06:39:28.959Z,1.87
2022-07-29T06:42:32.069Z,2.25
2022-07-29T06:45:35.778Z,2.47
2022-07-29T06:48:40.063Z,2.47
2022-07-29T06:51:42.637Z,1.58
2022-07-29T06:54:49.025Z,2.05
2022-07-29T06:57:51.647Z,2.00
2022-07-29T07:00:55.077Z,2.03
2022-07-29T07:03:57.755Z,2.30
2022-07-29T07:07:01.533Z,2.10
2022-07-29T07:10:04.693Z,1.98
2022-07-29T07:13:09.904Z,1.92
2022-07-29T07:16:13.672Z,2.17
2022-07-29T07:19:16.601Z,1.62
2022-07-29T07:22:19.173Z,1.80
2022-07-29T07:25:24.986Z,1.95
2022-07-29T07:28:27.535Z,2.00
2022-07-29T07:31:30.534Z,1.90
2022-07-29T07:34:33.169Z,2.12
2022-07-29T07:37:36.771Z,1.90
2022-07-29T07:40:39.484Z,2.05
2022-07-29T07:43:42.339Z,2.55
2022-07-29T07:46:45.950Z,1.67
2022-07-29T07:49:48.823Z,1.77
2022-07-29T07:52:54.113Z,1.75
2022-07-29T07:56:13.063Z,2.08
2022-07-29T07:59:15.809Z,2.00
2022-07-29T08:02:18.736Z,2.20
2022-07-29T08:05:21.814Z,2.15
2022-07-29T08:08:24.447Z,1.90
2022-07-29T08:11:27.383Z,2.17
2022-07-29T08:14:33.772Z,1.80
2022-07-29T08:17:36.720Z,1.83
2022-07-29T08:20:39.994Z,1.87
2022-07-29T08:23:58.937Z,2.03
2022-07-29T08:27:03.463Z,1.90
2022-07-29T08:30:08.150Z,1.92
2022-07-29T08:33:10.900Z,1.87
2022-07-29T08:36:14.202Z,2.40
2022-07-29T08:39:17.002Z,2.37
2022-07-29T08:42:20.148Z,2.60
2022-07-29T08:45:24.806Z,2.33
2022-07-29T08:48:27.750Z,2.00
2022-07-29T08:51:49.267Z,1.90
2022-07-29T08:54:56.251Z,2.15
2022-07-29T08:57:59.667Z,2.62
2022-07-29T09:01:03.951Z,2.10
2022-07-29T09:04:12.960Z,1.92
2022-07-29T09:07:17.288Z,2.20
2022-07-29T09:10:19.997Z,1.92
2022-07-29T09:13:23.648Z,2.50
2022-07-29T09:16:50.806Z,2.20
2022-07-29T09:19:49.299Z,2.03
2022-07-29T09:22:56.507Z,2.00
2022-07-29T09:26:06.992Z,1.92
2022-07-29T09:29:15.177Z,2.20
2022-07-29T09:32:17.966Z,1.90
2022-07-29T09:35:23.991Z,2.00
2022-07-29T09:38:26.879Z,2.05
2022-07-29T09:41:30.008Z,2.40
2022-07-29T09:44:47.701Z,1.87
2022-07-29T09:47:50.405Z,1.62
2022-07-29T09:50:53.562Z,1.62
2022-07-29T09:53:56.675Z,2.40
2022-07-29T09:56:59.472Z,1.85
2022-07-29T10:00:07.950Z,2.08
2022-07-29T10:03:16.683Z,1.50
2022-07-29T10:06:19.662Z,1.73
2022-07-29T10:09:22.452Z,1.85
2022-07-29T10:12:25.520Z,1.42
2022-07-29T10:15:30.818Z,1.60
2022-07-29T10:18:35.200Z,1.52
2022-07-29T10:21:40.738Z,1.90
2022-07-29T10:24:43.723Z,1.98
2022-07-29T10:27:48.503Z,2.08
2022-07-29T10:30:53.684Z,1.50
2022-07-29T10:34:14.734Z,1.87
2022-07-29T10:37:45.900Z,1.80
2022-07-29T10:41:27.597Z,1.40
2022-07-29T10:44:35.476Z,1.58
2022-07-29T10:47:38.161Z,1.67
2022-07-29T10:50:57.905Z,1.70
2022-07-29T10:54:05.272Z,1.33
2022-07-29T10:57:17.384Z,1.55
2022-07-29T11:00:31.469Z,1.27
2022-07-29T11:03:53.513Z,1.80
2022-07-29T11:07:05.513Z,1.92
2022-07-29T11:10:14.503Z,1.80
2022-07-29T11:13:47.244Z,1.45
2022-07-29T11:17:05.968Z,1.50
2022-07-29T11:20:36.545Z,1.70
2022-07-29T11:23:43.342Z,1.30
2022-07-29T11:27:31.729Z,1.70
2022-07-29T11:30:52.167Z,1.73
2022-07-29T11:33:56.943Z,1.50
2022-07-29T11:37:12.591Z,1.70
2022-07-29T11:40:16.602Z,1.10
2022-07-29T11:43:50.618Z,1.35
2022-07-29T11:46:54.288Z,1.60
2022-07-29T11:49:59.834Z,1.20
2022-07-29T11:53:13.574Z,1.40
2022-07-29T11:56:22.021Z,1.23
2022-07-29T11:59:33.129Z,1.73
2022-07-29T12:02:48.558Z,1.80
2022-07-29T12:05:52.097Z,1.15
2022-07-29T12:08:54.741Z,1.35
2022-07-29T12:12:04.648Z,1.35
2022-07-29T12:15:13.176Z,1.62
2022-07-29T12:18:18.925Z,1.35
2022-07-29T12:21:21.515Z,1.70
2022-07-29T12:24:43.636Z,1.25
2022-07-29T12:27:48.439Z,1.20
2022-07-29T12:30:52.531Z,1.50
2022-07-29T12:33:55.335Z,1.20
2022-07-29T12:37:01.911Z,1.20
2022-07-29T12:40:06.257Z,1.55
2022-07-29T12:43:17.412Z,1.65
2022-07-29T12:46:20.071Z,1.10
2022-07-29T12:49:23.992Z,1.20
2022-07-29T12:52:32.075Z,1.20
2022-07-29T12:55:55.424Z,1.23
2022-07-29T12:58:58.469Z,1.23
2022-07-29T13:02:01.569Z,1.30
2022-07-29T13:05:06.337Z,1.58
2022-07-29T13:08:21.878Z,1.40
2022-07-29T13:11:36.644Z,1.40
2022-07-29T13:14:51.140Z,1.50
2022-07-29T13:17:53.942Z,1.60
2022-07-29T13:20:58.009Z,1.55
2022-07-29T13:24:00.906Z,1.45
2022-07-29T13:27:05.515Z,1.55
2022-07-29T13:30:10.694Z,1.80
2022-07-29T13:33:15.061Z,1.60
2022-07-29T13:36:17.955Z,1.62
2022-07-29T13:39:20.757Z,1.90
2022-07-29T13:42:24.236Z,1.60
2022-07-29T13:45:29.240Z,1.45
2022-07-29T13:48:31.945Z,1.20
2022-07-29T13:51:34.822Z,0.93
2022-07-29T13:54:42.022Z,1.30
2022-07-29T13:57:45.362Z,1.20
2022-07-29T14:00:48.331Z,1.20
2022-07-29T14:03:51.418Z,1.67
2022-07-29T14:06:54.039Z,1.37
2022-07-29T14:09:57.870Z,1.42
2022-07-29T14:13:00.454Z,1.33
2022-07-29T14:16:03.524Z,1.20
2022-07-29T14:19:06.996Z,1.30
2022-07-29T14:22:10.961Z,1.20
2022-07-29T14:25:15.565Z,1.50
2022-07-29T14:28:18.736Z,1.27
2022-07-29T14:31:21.454Z,1.33
2022-07-29T14:34:24.469Z,1.40
2022-07-29T14:37:26.980Z,1.40
2022-07-29T14:40:30.135Z,1.50
2022-07-29T14:43:32.992Z,1.70
2022-07-29T14:46:36.164Z,1.85
2022-07-29T14:49:38.773Z,1.73
2022-07-29T14:52:41.682Z,1.75
2022-07-29T14:55:45.285Z,1.83
2022-07-29T14:58:49.085Z,2.20
2022-07-29T15:01:54.939Z,2.05
2022-07-29T15:04:58.012Z,2.12
2022-07-29T15:08:00.756Z,2.15
2022-07-29T15:11:03.614Z,1.98
2022-07-29T15:14:07.257Z,2.10
